Latest Coastal Weather Observations for Port Augusta

IDS60701

Issued at 6:35 am CST Thursday 28 August 2014 (issued every 10 minutes, with the page automatically refreshed every 10 minutes)

About coastal observations | Map of coastal stations | Coastal observations for SA | Marine services | Other Formats
Station Details ID: 018201 Name: PORT AUGUSTA AERO Lat: -32.51 Lon: 137.72 Height: 13.97 m
Data from the previous 72 hours. | See also: Recent months at Port Augusta
Date/Time
CST
Temp

°C
Wind Pressure Rain
since 9am
mm
Weather Cloud Vis
km
Sea
Height
m
Swell
Dir
 
Speed
knots
Gust
knots
hPa Trend Height
m
Period
s
Dir
28/06:30am 5.6 SSE 4 6 1027.3 - 0.0 - - - - - - -
28/06:00am 5.4 CALM 0 0 1027.1 - 0.0 - - - - - - -
28/05:30am 5.8 CALM 0 0 1026.9 - 0.0 - - - - - - -
28/05:00am 6.6 CALM 0 0 1026.7 - 0.0 - - - - - - -
28/04:30am 8.6 SE 1 4 1026.6 - 0.0 - - - - - - -
28/04:00am 11.3 SE 6 8 1026.6 - 0.0 - - - - - - -
28/03:30am 10.5 SE 7 9 1026.4 - 0.0 - - - - - - -
28/03:00am 12.8 SE 7 8 1026.5 - 0.0 - - - - - - -
28/02:30am 12.8 SE 8 10 1026.7 - 0.0 - - - - - - -
28/02:00am 9.5 SE 5 6 1026.8 - 0.0 - - - - - - -
28/01:30am 9.4 SE 5 7 1026.8 - 0.0 - - - - - - -
28/01:00am 9.3 SE 6 7 1026.8 - 0.0 - - - - - - -
28/12:30am 10.3 SE 6 8 1026.8 - 0.0 - - - - - - -
28/12:00am 12.1 SE 7 8 1027.0 - 0.0 - - - - - - -
 
Date/Time
CST
Temp

°C
Wind Pressure Rain
since 9am
mm
Weather Cloud Vis
km
Sea
Height
m
Swell
Dir
 
Speed
knots
Gust
knots
hPa Trend Height
m
Period
s
Dir
27/11:30pm 12.5 SE 8 10 1027.1 - 0.0 - - - - - - -
27/11:00pm 13.0 SE 8 10 1027.1 - 0.0 - - - - - - -
27/10:30pm 15.3 SE 9 11 1027.0 - 0.0 - - - - - - -
27/10:00pm 16.2 SE 10 13 1026.7 - 0.0 - - - - - - -
27/09:30pm 16.2 SE 11 15 1026.8 - 0.0 - - - - - - -
27/09:00pm 14.8 SE 8 11 1026.5 - 0.0 - - - - - - -
27/08:30pm 13.9 SE 8 10 1026.3 - 0.0 - - - - - - -
27/08:00pm 12.7 E 6 7 1026.1 - 0.0 - - - - - - -
27/07:30pm 14.0 ESE 7 8 1025.8 - 0.0 - - - - - - -
27/07:00pm 14.8 ESE 6 7 1025.4 - 0.0 - - - - - - -
27/06:30pm 18.5 SE 10 12 1025.0 - 0.0 - - - - - - -
27/06:00pm 18.8 SE 10 12 1024.8 - 0.0 - - - - - - -
27/05:30pm 20.1 SE 11 14 1024.5 - 0.0 - - - - - - -
27/05:00pm 20.8 SE 13 16 1024.4 - 0.0 - - - - - - -
27/04:30pm 22.0 SE 12 15 1024.2 - 0.0 - - - - - - -
27/04:00pm 22.1 SE 11 14 1024.2 - 0.0 - - - - - - -
27/03:30pm 22.6 SE 11 14 1024.3 - 0.0 - - - - - - -
27/03:00pm 23.4 SE 7 11 1024.3 - 0.0 - - - - - - -
27/02:30pm 22.5 SE 7 11 1024.4 - 0.0 - - - - - - -
27/02:00pm 22.9 SE 8 13 1024.5 - 0.0 - - - - - - -
27/01:30pm 22.4 E 8 12 1024.6 - 0.0 - - - - - - -
27/01:00pm 22.8 SE 4 9 1024.9 - 0.0 - - - - - - -
27/12:30pm 22.4 SW 6 10 1025.6 - 0.0 - - - - - - -
27/12:00pm 21.4 N 5 8 1026.1 - 0.0 - - - - - - -
27/11:30am 20.1 NNW 4 6 1026.6 - 0.0 - - - - - - -
27/11:00am 20.4 NW 4 6 1026.9 - 0.0 - - - - - - -
27/10:30am 19.3 W 6 9 1027.1 - 0.0 - - - - - - -
27/10:00am 18.9 WNW 4 6 1027.0 - 0.0 - - - - - - -
27/09:30am 17.6 NE 2 4 1027.0 - 0.0 - - - - - - -
27/09:00am 16.3 NE 1 3 1026.9 - 0.0 - - - - - - -
27/08:30am 12.6 CALM 0 1 1026.7 - 0.0 - - - - - - -
27/08:00am 9.9 W 2 4 1026.4 - 0.0 - - - - - - -
27/07:30am 5.5 WNW 4 6 1025.9 - 0.0 - - - - - - -
27/07:00am 2.3 CALM 0 0 1025.5 - 0.0 - - - - - - -
27/06:30am 2.5 CALM 0 0 1025.1 - 0.0 - - - - - - -
27/06:00am 2.3 ENE 2 3 1024.8 - 0.0 - - - - - - -
27/05:30am 3.2 ENE 2 4 1024.8 - 0.0 - - - - - - -
27/05:00am 4.1 ENE 3 5 1024.5 - 0.0 - - - - - - -
27/04:30am 3.5 SW 4 5 1024.4 - 0.0 - - - - - - -
27/04:00am 2.8 CALM 0 0 1024.2 - 0.0 - - - - - - -
27/03:30am 3.9 CALM 0 0 1024.1 - 0.0 - - - - - - -
27/03:00am 3.4 N 3 4 1023.9 - 0.0 - - - - - - -
27/02:30am 4.7 NNE 4 5 1024.1 - 0.0 - - - - - - -
27/02:00am 6.4 NE 5 7 1023.9 - 0.0 - - - - - - -
27/01:30am 5.0 NE 3 5 1024.1 - 0.0 - - - - - - -
27/01:00am 9.4 SE 6 8 1024.1 - 0.0 - - - - - - -
27/12:30am 6.0 S 2 4 1024.2 - 0.0 - - - - - - -
27/12:00am 7.4 SSE 5 6 1024.4 - 0.0 - - - - - - -
 
Date/Time
CST
Temp

°C
Wind Pressure Rain
since 9am
mm
Weather Cloud Vis
km
Sea
Height
m
Swell
Dir
 
Speed
knots
Gust
knots
hPa Trend Height
m
Period
s
Dir
26/11:30pm 7.3 SSE 6 8 1024.3 - 0.0 - - - - - - -
26/11:00pm 6.2 S 4 5 1024.2 - 0.0 - - - - - - -
26/10:30pm 7.3 S 4 5 1024.2 - 0.0 - - - - - - -
26/10:00pm 8.7 SE 3 5 1024.2 - 0.0 - - - - - - -
26/09:30pm 9.6 E 4 5 1024.2 - 0.0 - - - - - - -
26/09:00pm 11.4 ESE 8 9 1024.0 - 0.0 - - - - - - -
26/08:30pm 12.0 ESE 9 10 1023.9 - 0.0 - - - - - - -
26/08:00pm 12.7 ESE 8 10 1023.8 - 0.0 - - - - - - -
26/07:30pm 13.4 ESE 9 12 1023.5 - 0.0 - - - - - - -
26/07:00pm 14.2 SE 9 11 1023.3 - 0.0 - - - - - - -
26/06:30pm 16.1 SE 8 11 1023.1 - 0.0 - - - - - - -
26/06:00pm 17.1 SE 8 10 1023.1 - 0.0 - - - - - - -
26/05:30pm 18.6 SE 11 13 1022.9 - 0.0 - - - - - - -
26/05:00pm 20.1 SE 11 14 1022.8 - 0.0 - - - - - - -
26/04:30pm 20.6 SE 11 14 1022.5 - 0.0 - - - - - - -
26/04:00pm 21.5 SE 11 14 1022.4 - 0.0 - - - - - - -
26/03:30pm 22.4 SE 9 13 1022.3 - 0.0 - - - - - - -
26/03:00pm 22.6 ESE 7 10 1022.7 - 0.0 - - - - - - -
26/02:30pm 23.0 SE 6 9 1023.0 - 0.0 - - - - - - -
26/02:00pm 22.1 E 8 12 1023.1 - 0.0 - - - - - - -
26/01:30pm 22.1 E 5 8 1023.4 - 0.0 - - - - - - -
26/01:00pm 22.3 ENE 7 10 1023.9 - 0.0 - - - - - - -
26/12:30pm 21.6 E 5 9 1024.6 - 0.0 - - - - - - -
26/12:00pm 20.6 NNE 4 6 1025.2 - 0.0 - - - - - - -
26/11:30am 20.0 ENE 5 8 1025.7 - 0.0 - - - - - - -
26/11:00am 19.0 E 5 7 1026.2 - 0.0 - - - - - - -
26/10:30am 17.3 ENE 4 6 1026.7 - 0.0 - - - - - - -
26/10:00am 16.5 E 5 8 1026.8 - 0.0 - - - - - - -
26/09:30am 15.5 SE 7 9 1027.0 - 0.0 - - - - - - -
26/09:00am 13.6 SE 8 11 1027.1 - 0.0 - - - - - - -
26/08:30am 11.1 SSE 7 9 1027.1 - 0.0 - Partly cloudy - - - - -
26/08:00am 11.0 SE 5 9 1026.9 - 0.0 - - - - - - -
26/07:30am 8.8 ESE 5 6 1026.7 - 0.0 - - - - - - -
26/07:00am 6.5 SSE 5 7 1026.5 - 0.0 - - - - - - -
26/06:30am 7.5 SSE 5 9 1026.1 - 0.0 - - - - - - -
26/06:00am 6.2 S 4 6 1025.9 - 0.0 - - - - - - -
26/05:30am 8.1 SE 7 9 1025.8 - 0.0 - - - - - - -
26/05:00am 8.9 SE 8 9 1025.6 - 0.0 - - - - - - -
26/04:30am 8.9 SE 7 11 1025.6 - 0.0 - - - - - - -
26/04:00am 6.1 S 6 7 1025.3 - 0.0 - - - - - - -
26/03:30am 5.4 SSW 6 7 1025.3 - 0.0 - - - - - - -
26/03:00am 7.2 SE 4 5 1025.5 - 0.0 - - - - - - -
26/02:30am 8.9 SE 3 4 1025.9 - 0.0 - - - - - - -
26/02:00am 9.3 S 4 5 1026.2 - 0.0 - - - - - - -
26/01:30am 10.0 S 4 5 1026.5 - 0.0 - - - - - - -
26/01:00am 11.5 SE 7 9 1026.5 - 0.0 - - - - - - -
26/12:30am 11.0 ESE 5 7 1026.7 - 0.0 - - - - - - -
26/12:00am 11.8 SSE 5 7 1026.8 - 0.0 - - - - - - -
 
Date/Time
CST
Temp

°C
Wind Pressure Rain
since 9am
mm
Weather Cloud Vis
km
Sea
Height
m
Swell
Dir
 
Speed
knots
Gust
knots
hPa Trend Height
m
Period
s
Dir
25/11:30pm 12.2 SE 5 7 1026.8 - 0.0 - - - - - - -
25/11:00pm 12.8 S 3 5 1027.1 - 0.0 - - - - - - -
25/10:30pm 12.7 SW 4 6 1027.2 - 0.0 - - - - - - -
25/10:00pm 13.4 SSE 5 8 1027.5 - 0.0 - - - - - - -
25/09:30pm 14.0 SSE 6 8 1027.6 - 0.0 - - - - - - -
25/09:00pm 12.3 E 5 7 1027.5 - 0.0 - - - - - - -
25/08:30pm 15.2 S 4 9 1027.2 - 0.0 - - - - - - -
25/08:00pm 15.5 SE 9 12 1027.0 - 0.0 - - - - - - -
25/07:30pm 16.2 SE 11 13 1026.8 - 0.0 - - - - - - -
25/07:00pm 16.3 SE 9 12 1026.6 - 0.0 - - - - - - -
25/06:30pm 16.6 SE 10 13 1026.6 - 0.0 - - - - - - -
25/06:00pm 17.2 SE 11 14 1026.5 - 0.0 - - - - - - -
25/05:30pm 18.6 SE 10 14 1026.4 - 0.0 - - - - - - -
25/05:00pm 19.3 SE 12 15 1026.1 - 0.0 - - - - - - -
25/04:30pm 20.1 SE 12 14 1026.1 - 0.0 - - - - - - -
25/04:00pm 21.0 SE 10 13 1026.1 - 0.0 - - - - - - -
25/03:30pm 21.4 SE 8 11 1026.2 - 0.0 - - - - - - -
25/03:00pm 21.4 SE 8 11 1026.3 - 0.0 - - - - - - -
25/02:30pm 21.8 ESE 8 10 1026.6 - 0.0 - - - - - - -
25/02:00pm 21.7 SE 8 12 1027.1 - 0.0 - - - - - - -
25/01:30pm 21.8 E 4 7 1027.6 - 0.0 - - - - - - -
25/01:00pm 20.4 ESE 6 9 1028.2 - 0.0 - - - - - - -
25/12:30pm 19.3 ESE 7 11 1028.9 - 0.0 - - - - - - -
25/12:00pm 19.9 NNE 5 8 1029.4 - 0.0 - - - - - - -
25/11:30am 19.7 NW 5 9 1029.6 - 0.0 - - - - - - -
25/11:00am 16.7 SSE 4 5 1030.1 - 0.0 - - - - - - -
25/10:30am 16.1 E 5 7 1030.5 - 0.0 - - - - - - -
25/10:00am 15.3 ESE 6 8 1030.6 - 0.0 - - - - - - -
25/09:30am 15.0 ESE 1 5 1030.7 - 0.0 - - - - - - -
25/09:00am 12.6 SW 3 4 1030.8 - 0.0 - - - - - - -
25/08:30am 10.7 W 2 4 1030.8 - 0.0 - - - - - - -
25/08:00am 7.8 W 4 5 1030.6 - 0.0 - - - - - - -
25/07:30am 4.1 WSW 4 6 1030.5 - 0.0 - - - - - - -
25/07:00am 1.4 S 3 5 1030.2 - 0.0 - - - - - - -

Other Formats:

Comma delimited format used in spreadsheet applications
http://www.bom.gov.au/fwo/IDS60701/IDS60701.95666.axf

JavaScript Object Notation format (JSON) in row-major order
http://www.bom.gov.au/fwo/IDS60701/IDS60701.95666.json